Brooks City Base, Texas
Current Conditions -  °F | °C
As of 6:53 AM on Monday 22 Dec 2014 (Local Time) from KSSF Reporting Station
Haze Haze  
Wind Chill: 56°   Ceiling: 1600
Heat Index: 56°   Visibility: 6mi
Dew Point: 54°   Wind: 6mph
Humidity: 93%   Direction: 250°WSW
Pressure: 29.76"   Gusts: NA
Location:  29.3423°N, 98.4394°W
Report Text: KSSF 221253Z 25005KT 6SM BR OVC016 13/12 A2976 RMK AO2 SLP078 T01330122
Loading
Personal Weather Stations






























Interactive Weather Map New forecast layout! Learn more

10-Day Weather Forecast

Advertisements
Track Severe Weather on mobile